Who's Online

We have 2 guests online

GK Weather

An error occured during parsing XML data. Please try again.

Aviation WX

[source: ADDS]
KIAD 202352Z 15009KT 10SM SCT250 24/19 A2991 RMK AO2 LTG DSNT ALQDS SLP125 T02390189 10283 20239 55004 =
KIAD 202338Z 2100/2206 15010KT P6SM BKN250 FM210400 18005KT 6SM BR SCT030 FM210700 18005KT 3SM BR BKN030 FM210900 18005KT 5SM BR BKN020 FM211100 18004KT 5SM BR BKN008 FM211500 21007KT P6SM -SHRA BKN060 FM211700 27006KT P6SM -SHRA OVC050 FM212100 32011G16KT P6SM -SHRA OVC030 FM220000 32012G18KT P6SM -SHRA BKN020 =
SR / SS: 01:06 / 12:06 UTC (Washington-Dulles 2016-10-20)

JoomlaWatch Agent

Home Links
We are regularly out on the Web. When we find a great site we list it.